Aeroporto :
LOGIN :

Iscrizione | Disclaimer

   EN    FR    IT 

 










Sommario :    VFR   VFR Marginale   IFR   IFR Intensivo   IFR Molto Intensivo
Visibilità : 
Base nubi : 
>= 8 km
>= 3000ft
5 / 8 km
1000 / 3000 ft
1500m / 5 km
500 / 1000 ft
800 / 1500m
200 / 500 ft
< 800m
< 200 ft
Simboli :   Temporali  Nebbia  Neve Forte  Precipitazioni Forti  Vento > 20 kt
SIGMETs :   Varie  Temporali  Ghiacco  Turbolenza  Onda orograficha  Ceneri Vulcaniche






- Altitudine del aeroporto : 464 ft
- Codice IATA : EVX


LFOE - Evreux

ULTIMO METAR :
  • 291530Z AUTO 05010KT 010V080 CAVOK 24/04 Q1022 NOSIG

METARs OBSOLETI :
  • 291500Z AUTO 05010KT 020V080 CAVOK 24/03 Q1022 NOSIG
  • 291430Z AUTO 05012KT 020V090 CAVOK 24/03 Q1022 NOSIG
  • 291400Z AUTO 05009KT 020V080 CAVOK 23/04 Q1023 NOSIG
  • 291330Z AUTO 07010KT 040V100 CAVOK 23/03 Q1023 NOSIG
  • 291300Z AUTO 07010KT 040V100 CAVOK 23/03 Q1024 NOSIG

TAF TAF LFOE
Valido dal 29 a 15 ore il 30 a 15 ore UTC


291400Z 2915/3015 05010KT CAVOK



MetMap, La meteo Aeronautica in un colpo d'occhio ! - Copyright ORBIFLY Dicembre 2007 - Disclaimer

ORBIFLY MET'MAP TEAM :

Programmazione e sviluppo : Alexandra Zaïnal
Concezione : Baudouin d'Aumeries
Aiuto per la programmazione : Marc-Olivier Méhu
Supporto tecnico e logistico : Manuel Goepfert
Aiuto per la traduzione : Arnaldo La Scala

Contatto : metmap@orbifly.com




FONTI E CREDITI :

   NOAA